Aviation Digital Data Service (ADDS)

Output produced by METARs form (1709 UTC 20 November 2017)
found at http://aviationweather.gov/adds/metars/
 
KRDU 201134Z 2012/2112 VRB02KT P6SM SKC